Time;durP1;ratioP1;P1;durP2;ratioP2;P2;SDS_P1;SDS_P2;PMS_P1;PMS_P2;Temp;Humidity;BMP_temperature;BMP_pressure;BME280_temperature;BME280_humidity;BME280_pressure;Samples;Min_cycle;Max_cycle;Signal;HPM_P1;HPM_P2
2024/02/05 00:02:04;;;;;;;235.70;111.53;;;9.10;99.90;11.70;96804.00;;;;4940442;28;20223;-67
2024/02/05 00:04:53;;;;;;;240.37;111.80;;;8.80;99.90;11.20;96801.00;;;;4945532;28;20220;-70
2024/02/05 00:07:42;;;;;;;249.43;111.17;;;8.70;99.90;11.30;96805.00;;;;4933390;28;20209;-68
2024/02/05 00:10:31;;;;;;;291.20;109.67;;;8.70;99.90;11.50;96809.00;;;;4934426;28;20313;-68
2024/02/05 00:13:23;;;;;;;307.53;108.60;;;8.60;99.90;11.30;96796.00;;;;4939693;28;20228;-68
2024/02/05 00:16:12;;;;;;;317.47;106.20;;;8.50;99.90;11.30;96780.00;;;;4945091;28;20244;-70
2024/02/05 00:19:01;;;;;;;347.13;122.10;;;8.70;99.90;11.00;96776.00;;;;4941346;28;21126;-72
2024/02/05 00:21:50;;;;;;;266.13;104.87;;;8.50;99.90;11.10;96780.00;;;;4933680;28;20212;-72
2024/02/05 00:24:39;;;;;;;249.57;106.77;;;8.50;99.90;11.60;96788.00;;;;4937723;28;20228;-70
2024/02/05 00:27:28;;;;;;;246.23;104.47;;;8.50;99.90;11.30;96785.00;;;;4943345;29;20200;-71
2024/02/05 00:30:18;;;;;;;252.47;107.70;;;8.50;99.90;11.50;96783.00;;;;4946271;28;20211;-71
2024/02/05 00:33:07;;;;;;;266.27;117.60;;;8.70;99.90;11.60;96805.00;;;;4940301;28;20205;-71
2024/02/05 00:35:56;;;;;;;252.23;112.57;;;8.50;99.90;11.70;96793.00;;;;4938315;28;20229;-71
2024/02/05 00:38:45;;;;;;;245.43;107.00;;;8.60;99.90;11.50;96795.00;;;;4943177;28;20203;-71
2024/02/05 00:41:34;;;;;;;245.63;111.30;;;8.90;99.90;11.60;96793.00;;;;4937718;28;20674;-71
2024/02/05 00:44:23;;;;;;;249.00;109.97;;;8.80;99.90;11.50;96800.00;;;;4940557;28;20577;-71
2024/02/05 00:47:13;;;;;;;238.73;104.50;;;8.70;99.90;11.50;96783.00;;;;4940865;28;20236;-70
2024/02/05 00:50:02;;;;;;;245.27;111.33;;;8.60;99.90;11.40;96799.00;;;;4941688;28;20211;-71
2024/02/05 00:52:51;;;;;;;236.97;108.07;;;8.50;99.90;11.40;96801.00;;;;4935724;28;20207;-69
2024/02/05 00:55:40;;;;;;;229.80;101.07;;;8.70;99.90;11.20;96800.00;;;;4938217;28;20225;-70
2024/02/05 00:58:29;;;;;;;258.60;118.87;;;8.30;99.90;11.30;96794.00;;;;4934333;28;20215;-70
2024/02/05 01:01:18;;;;;;;238.93;106.97;;;8.50;99.90;10.90;96789.00;;;;4936623;28;20204;-70
2024/02/05 01:04:08;;;;;;;242.60;108.67;;;8.10;99.90;10.60;96782.00;;;;4931203;28;20205;-71
2024/02/05 01:06:57;;;;;;;242.77;107.87;;;8.20;99.90;10.90;96774.00;;;;4934801;28;20234;-72
2024/02/05 01:09:46;;;;;;;234.80;105.07;;;8.40;99.90;10.60;96762.00;;;;4937552;28;20215;-71
2024/02/05 01:12:35;;;;;;;233.27;102.80;;;8.20;99.90;10.60;96767.00;;;;4940899;29;20219;-71
2024/02/05 01:15:24;;;;;;;236.30;105.23;;;8.30;99.90;11.10;96758.00;;;;4939636;28;20240;-71
2024/02/05 01:18:13;;;;;;;240.50;106.43;;;8.20;99.90;11.10;96754.00;;;;4940402;28;20213;-70
2024/02/05 01:21:04;;;;;;;244.83;107.30;;;8.20;99.90;11.20;96759.00;;;;4938270;28;20225;-70
2024/02/05 01:23:53;;;;;;;241.10;106.73;;;8.40;99.90;11.20;96760.00;;;;4942459;28;20200;-70
2024/02/05 01:26:41;;;;;;;231.23;101.87;;;8.20;99.90;11.00;96748.00;;;;4941440;28;20228;-71
2024/02/05 01:29:30;;;;;;;245.47;106.33;;;8.20;99.90;11.10;96751.00;;;;4937230;28;20204;-70
2024/02/05 01:32:19;;;;;;;245.23;106.33;;;8.00;99.90;11.10;96741.00;;;;4933991;28;20240;-70
2024/02/05 01:35:10;;;;;;;253.83;107.90;;;8.00;99.90;10.50;96732.00;;;;4931005;28;20231;-70
2024/02/05 01:38:00;;;;;;;253.13;104.80;;;8.10;99.90;10.80;96718.00;;;;4942161;28;20205;-70
2024/02/05 01:40:49;;;;;;;260.60;100.07;;;8.00;99.90;10.60;96723.00;;;;4939755;28;20216;-70
2024/02/05 01:43:38;;;;;;;294.67;99.77;;;8.20;99.90;10.70;96714.00;;;;4935770;28;20212;-72
2024/02/05 01:46:29;;;;;;;307.80;137.50;;;7.80;99.90;10.80;96708.00;;;;4933612;28;20605;-71
2024/02/05 01:49:19;;;;;;;271.47;110.53;;;8.00;99.90;10.80;96716.00;;;;4940963;28;20211;-69
2024/02/05 01:52:12;;;;;;;229.67;105.63;;;7.90;99.90;11.10;96720.00;;;;4938907;28;20685;-69
2024/02/05 01:55:05;;;;;;;237.87;105.67;;;7.90;99.90;11.90;96711.00;;;;4935192;28;20232;-69
2024/02/05 01:57:55;;;;;;;228.53;107.63;;;8.30;99.90;12.10;96711.00;;;;4929532;28;20341;-68
2024/02/05 02:00:45;;;;;;;214.87;102.37;;;8.50;99.90;11.80;96700.00;;;;4944264;28;20256;-69
2024/02/05 02:03:37;;;;;;;209.80;101.47;;;8.80;99.90;11.70;96704.00;;;;4935447;28;20216;-69
2024/02/05 02:06:26;;;;;;;207.63;101.87;;;8.70;99.90;11.60;96695.00;;;;4945583;28;20305;-69
2024/02/05 02:09:16;;;;;;;208.03;102.13;;;8.70;99.90;11.30;96698.00;;;;4936974;28;20576;-70
2024/02/05 02:12:07;;;;;;;211.07;102.97;;;8.80;99.90;11.30;96694.00;;;;4946860;28;20209;-71
2024/02/05 02:14:57;;;;;;;207.67;103.37;;;8.80;99.90;11.50;96692.00;;;;4935928;28;20232;-71
2024/02/05 02:17:49;;;;;;;208.07;102.63;;;8.70;99.90;11.60;96696.00;;;;4971298;22;20993;-69
2024/02/05 02:20:45;;;;;;;209.97;105.30;;;8.90;99.90;11.70;96687.00;;;;4957090;28;20203;-66
2024/02/05 02:23:36;;;;;;;202.13;102.20;;;8.60;99.90;11.70;96680.00;;;;4961054;28;20214;-66
2024/02/05 02:26:26;;;;;;;202.60;101.00;;;8.80;99.90;11.90;96691.00;;;;4952691;28;20220;-66
2024/02/05 02:29:16;;;;;;;201.77;100.87;;;8.70;99.90;12.30;96678.00;;;;4936399;28;20609;-66
2024/02/05 02:32:15;;;;;;;209.63;104.67;;;9.10;99.90;12.10;96691.00;;;;4942746;28;20826;-66
2024/02/05 02:35:13;;;;;;;205.40;104.07;;;9.10;99.90;12.60;96674.00;;;;4937109;28;20228;-68
2024/02/05 02:38:09;;;;;;;203.93;106.37;;;9.30;99.90;12.70;96682.00;;;;4945202;28;20212;-68
2024/02/05 02:41:05;;;;;;;211.27;108.63;;;9.30;99.90;13.50;96679.00;;;;4943394;28;20204;-68
2024/02/05 02:43:57;;;;;;;211.60;109.03;;;9.50;99.90;13.90;96680.00;;;;4930312;28;20216;-68
2024/02/05 02:46:46;;;;;;;209.13;110.60;;;10.00;99.90;13.90;96681.00;;;;4941120;28;20236;-68
2024/02/05 02:49:35;;;;;;;213.50;112.93;;;10.20;99.90;13.80;96678.00;;;;4938918;28;20592;-68
2024/02/05 02:52:24;;;;;;;210.83;115.10;;;10.50;99.90;13.70;96685.00;;;;4937165;28;20200;-68
2024/02/05 02:55:13;;;;;;;200.77;111.83;;;10.60;99.90;14.00;96672.00;;;;4938564;28;20284;-68
2024/02/05 02:58:03;;;;;;;221.07;124.40;;;10.70;99.90;13.50;96679.00;;;;4932964;28;20211;-68
2024/02/05 03:00:52;;;;;;;198.70;113.40;;;10.70;99.90;14.00;96665.00;;;;4939870;28;20196;-68
2024/02/05 03:03:41;;;;;;;203.70;117.60;;;10.70;99.90;13.50;96691.00;;;;4935843;29;20203;-68
2024/02/05 03:06:31;;;;;;;197.30;114.47;;;10.90;99.90;13.80;96686.00;;;;4938082;28;20220;-68
2024/02/05 03:09:20;;;;;;;209.30;118.40;;;11.00;99.90;14.30;96687.00;;;;4943756;28;20246;-68
2024/02/05 03:12:09;;;;;;;229.17;128.13;;;11.30;99.90;15.30;96689.00;;;;4932381;28;20675;-68
2024/02/05 03:15:00;;;;;;;219.50;126.37;;;11.40;99.90;15.50;96685.00;;;;4936648;28;20239;-68
2024/02/05 03:17:49;;;;;;;222.37;128.73;;;11.60;99.90;15.50;96666.00;;;;4942459;28;20254;-69
2024/02/05 03:20:39;;;;;;;231.03;131.73;;;12.00;99.90;15.70;96693.00;;;;4935512;28;20215;-68
2024/02/05 03:23:28;;;;;;;231.97;136.33;;;12.30;99.90;16.30;96688.00;;;;4944967;28;20200;-69
2024/02/05 03:26:18;;;;;;;232.97;137.63;;;12.50;99.40;16.50;96691.00;;;;4942935;28;20243;-68
2024/02/05 03:29:06;;;;;;;256.67;150.60;;;13.00;98.40;16.90;96690.00;;;;4938240;28;20208;-69
2024/02/05 03:31:57;;;;;;;258.40;149.73;;;13.30;97.80;16.50;96698.00;;;;4933978;28;20212;-67
2024/02/05 03:34:46;;;;;;;256.80;152.00;;;13.50;97.50;17.10;96679.00;;;;4949666;28;20225;-67
2024/02/05 03:37:35;;;;;;;266.27;162.03;;;14.10;99.90;18.00;96709.00;;;;4946064;28;20309;-68
2024/02/05 03:40:25;;;;;;;272.00;167.23;;;14.70;99.90;18.10;96704.00;;;;4940704;28;20826;-68
2024/02/05 03:43:13;;;;;;;286.83;181.43;;;14.80;99.90;17.60;96690.00;;;;4938368;28;20201;-68
2024/02/05 03:46:02;;;;;;;288.47;177.30;;;14.70;99.90;17.60;96687.00;;;;4940528;28;20217;-68
2024/02/05 03:48:53;;;;;;;284.17;177.53;;;14.70;99.90;17.40;96669.00;;;;4939877;28;20592;-69
2024/02/05 03:51:42;;;;;;;281.87;177.13;;;14.50;99.90;17.30;96683.00;;;;4942430;28;20201;-68
2024/02/05 03:54:31;;;;;;;277.03;176.00;;;14.40;99.80;17.80;96685.00;;;;4938920;28;20206;-67
2024/02/05 03:57:20;;;;;;;284.37;176.23;;;14.40;99.30;17.40;96690.00;;;;4940263;28;20232;-68
2024/02/05 04:00:11;;;;;;;284.60;179.37;;;14.50;99.80;17.30;96681.00;;;;4938445;28;20717;-68
2024/02/05 04:03:00;;;;;;;283.33;181.20;;;14.40;99.80;16.80;96684.00;;;;4942621;28;20203;-67
2024/02/05 04:05:50;;;;;;;265.57;174.00;;;14.30;99.90;17.10;96665.00;;;;4937805;28;20212;-67
2024/02/05 04:08:39;;;;;;;275.00;175.83;;;14.10;99.90;16.80;96687.00;;;;4934690;28;20227;-67
2024/02/05 04:11:27;;;;;;;261.60;167.50;;;14.10;99.90;17.10;96682.00;;;;4938447;28;20216;-67
2024/02/05 04:14:16;;;;;;;261.63;168.10;;;14.10;99.80;17.10;96703.00;;;;4941728;28;20586;-68
2024/02/05 04:17:08;;;;;;;253.40;171.30;;;14.10;99.90;17.00;96687.00;;;;4938344;28;20232;-67
2024/02/05 04:19:57;;;;;;;260.17;168.20;;;14.00;99.90;15.40;96680.00;;;;4939114;28;20673;-67
2024/02/05 04:22:49;;;;;;;247.77;164.83;;;13.80;99.90;15.40;96638.00;;;;4940757;28;20201;-67
2024/02/05 04:25:38;;;;;;;247.33;160.03;;;13.60;99.90;16.90;96670.00;;;;4945006;28;20192;-68
2024/02/05 04:28:31;;;;;;;261.07;167.90;;;13.70;99.90;17.30;96675.00;;;;4938351;28;20204;-67
2024/02/05 04:31:20;;;;;;;254.13;161.97;;;14.10;99.90;17.40;96671.00;;;;4943895;29;20204;-68
2024/02/05 04:34:09;;;;;;;263.77;172.37;;;14.10;99.90;17.60;96672.00;;;;4941213;28;20215;-68
2024/02/05 04:36:58;;;;;;;260.30;169.77;;;14.30;99.50;17.60;96688.00;;;;4938854;28;20704;-68
2024/02/05 04:39:48;;;;;;;252.87;167.10;;;14.40;99.80;17.20;96670.00;;;;4940671;29;20216;-68
2024/02/05 04:42:37;;;;;;;252.57;164.83;;;14.20;99.40;16.50;96672.00;;;;4943138;28;20204;-68
2024/02/05 04:45:26;;;;;;;255.70;167.97;;;14.20;99.90;16.80;96666.00;;;;4946512;28;20208;-68
2024/02/05 04:48:19;;;;;;;261.93;171.47;;;14.10;99.90;16.70;96689.00;;;;4944268;28;20201;-68
2024/02/05 04:51:12;;;;;;;255.33;165.30;;;13.90;99.80;16.90;96663.00;;;;4944533;28;20335;-68
2024/02/05 04:54:01;;;;;;;245.20;166.23;;;13.80;99.90;15.70;96677.00;;;;4937364;28;20248;-67
2024/02/05 04:56:51;;;;;;;231.67;157.67;;;13.80;99.90;15.90;96679.00;;;;4940317;28;20232;-67
2024/02/05 04:59:40;;;;;;;233.07;154.63;;;13.50;99.90;16.20;96675.00;;;;4940092;28;20211;-67
2024/02/05 05:02:29;;;;;;;240.53;159.80;;;13.60;99.90;16.30;96691.00;;;;4940001;28;20204;-67
2024/02/05 05:05:18;;;;;;;236.37;154.03;;;13.70;99.90;16.40;96684.00;;;;4946259;28;20208;-67
2024/02/05 05:08:07;;;;;;;247.67;163.87;;;13.80;99.70;16.80;96702.00;;;;4942134;28;20229;-67
2024/02/05 05:10:56;;;;;;;248.47;160.40;;;14.10;99.00;17.30;96684.00;;;;4933724;28;20220;-68
2024/02/05 05:13:46;;;;;;;232.77;157.10;;;14.40;98.60;17.90;96675.00;;;;4940206;29;20211;-69
2024/02/05 05:16:35;;;;;;;243.27;164.27;;;14.70;98.50;17.60;96693.00;;;;4943810;28;20232;-68
2024/02/05 05:19:24;;;;;;;254.63;168.70;;;14.70;98.30;17.40;96695.00;;;;4942905;28;20215;-67
2024/02/05 05:22:13;;;;;;;257.83;168.03;;;14.80;97.90;18.00;96711.00;;;;4937427;28;20789;-68
2024/02/05 05:25:01;;;;;;;270.67;183.47;;;15.00;97.70;17.20;96702.00;;;;4943192;28;20556;-67
2024/02/05 05:27:50;;;;;;;249.73;173.20;;;15.00;97.50;16.80;96706.00;;;;4941680;28;20228;-68
2024/02/05 05:30:40;;;;;;;272.77;182.63;;;14.70;98.00;17.30;96714.00;;;;4934944;28;20404;-68
2024/02/05 05:33:29;;;;;;;257.40;170.80;;;14.50;97.90;17.40;96717.00;;;;4935980;28;20209;-68
2024/02/05 05:36:18;;;;;;;264.40;179.00;;;14.50;98.20;17.50;96714.00;;;;4941821;28;20243;-68
2024/02/05 05:39:09;;;;;;;265.10;177.83;;;14.50;97.10;17.30;96701.00;;;;4935508;28;20546;-69
2024/02/05 05:41:58;;;;;;;253.63;173.20;;;14.60;97.60;17.60;96699.00;;;;4939290;28;20262;-68
2024/02/05 05:44:47;;;;;;;242.93;168.60;;;14.40;96.90;17.20;96712.00;;;;4939385;28;20216;-68
2024/02/05 05:47:38;;;;;;;239.73;168.97;;;14.40;97.30;17.40;96733.00;;;;4937421;28;20231;-68
2024/02/05 05:50:27;;;;;;;246.60;171.73;;;14.30;97.10;17.70;96718.00;;;;4941766;28;20211;-68
2024/02/05 05:53:16;;;;;;;256.63;178.27;;;14.40;96.20;17.90;96732.00;;;;4941535;28;20204;-69
2024/02/05 05:56:06;;;;;;;254.07;175.23;;;14.60;95.90;17.40;96754.00;;;;4941885;28;20236;-68
2024/02/05 05:58:56;;;;;;;259.57;175.57;;;14.80;95.90;17.80;96749.00;;;;4943702;28;20914;-68
2024/02/05 06:01:45;;;;;;;256.67;174.27;;;15.10;95.20;18.10;96754.00;;;;4940649;28;20918;-69
2024/02/05 06:04:37;;;;;;;258.80;174.33;;;15.20;95.80;18.00;96751.00;;;;4939498;28;20205;-69
2024/02/05 06:07:26;;;;;;;258.97;176.77;;;15.00;95.40;17.30;96766.00;;;;4933701;28;20235;-68
2024/02/05 06:10:16;;;;;;;260.70;182.53;;;14.90;95.40;17.60;96778.00;;;;4942822;28;20205;-70
2024/02/05 06:13:05;;;;;;;276.80;189.77;;;14.90;95.70;17.60;96766.00;;;;4942048;28;20204;-68
2024/02/05 06:15:54;;;;;;;257.47;178.57;;;14.80;94.80;17.70;96775.00;;;;4941667;28;20677;-68
2024/02/05 06:18:42;;;;;;;260.50;178.40;;;14.80;95.30;17.40;96793.00;;;;4937240;28;20200;-68
2024/02/05 06:21:33;;;;;;;259.03;179.97;;;14.70;95.70;17.60;96819.00;;;;4944562;29;20208;-68
2024/02/05 06:24:22;;;;;;;255.73;176.63;;;14.50;94.90;17.90;96778.00;;;;4943809;29;20204;-68
2024/02/05 06:27:10;;;;;;;270.10;183.57;;;14.60;94.90;17.20;96772.00;;;;4943002;28;20245;-67
2024/02/05 06:29:59;;;;;;;258.10;177.80;;;14.70;95.00;17.10;96782.00;;;;4938022;28;20602;-68
2024/02/05 06:32:48;;;;;;;257.80;179.67;;;14.80;94.70;17.50;96775.00;;;;4941535;28;20561;-67
2024/02/05 06:35:37;;;;;;;265.93;184.73;;;15.30;94.90;17.50;96789.00;;;;4944530;28;20207;-68
2024/02/05 06:38:27;;;;;;;259.00;181.20;;;15.60;95.40;17.60;96798.00;;;;4943484;28;20208;-66
2024/02/05 06:41:16;;;;;;;255.03;177.83;;;15.60;95.30;18.50;96821.00;;;;4946093;28;20208;-68
2024/02/05 06:44:06;;;;;;;260.70;184.07;;;15.50;95.30;18.40;96807.00;;;;4940455;28;20219;-68
2024/02/05 06:46:55;;;;;;;263.83;186.67;;;15.80;95.80;18.60;96818.00;;;;4939886;28;20220;-68
2024/02/05 06:49:43;;;;;;;269.73;190.93;;;15.70;96.20;18.50;96822.00;;;;4902776;28;20215;-68
2024/02/05 06:52:33;;;;;;;269.00;192.67;;;15.50;96.70;18.20;96823.00;;;;4933410;28;20689;-68
2024/02/05 06:55:23;;;;;;;366.27;258.43;;;15.50;97.30;18.20;96831.00;;;;4910141;28;20212;-68
2024/02/05 06:58:12;;;;;;;360.20;254.67;;;15.30;98.10;18.10;96830.00;;;;4884548;28;20241;-68
2024/02/05 07:01:01;;;;;;;378.87;267.60;;;15.30;99.20;17.70;96842.00;;;;4889319;28;20638;-68
2024/02/05 07:03:50;;;;;;;304.30;215.13;;;15.00;99.80;17.60;96831.00;;;;4890774;28;20289;-68
2024/02/05 07:06:39;;;;;;;269.07;189.80;;;15.10;98.50;18.20;96794.00;;;;4904176;28;20223;-68
2024/02/05 07:09:28;;;;;;;389.77;271.17;;;15.10;98.30;18.00;96832.00;;;;4882082;28;20205;-68
2024/02/05 07:12:19;;;;;;;362.07;254.37;;;15.20;98.20;17.80;96849.00;;;;4893289;28;20214;-68
2024/02/05 07:15:08;;;;;;;369.57;258.63;;;15.20;98.60;18.00;96843.00;;;;4890264;28;20245;-68
2024/02/05 07:17:57;;;;;;;420.23;289.27;;;15.30;97.90;17.80;96862.00;;;;4905435;28;20752;-67
2024/02/05 07:20:46;;;;;;;276.07;190.70;;;15.40;97.80;18.60;96836.00;;;;4939858;28;20763;-68
2024/02/05 07:23:36;;;;;;;276.17;191.07;;;15.40;97.80;18.30;96840.00;;;;4946534;28;20728;-67
2024/02/05 07:26:25;;;;;;;292.17;196.23;;;;;18.40;96842.00;;;;4942883;28;20325;-67
2024/02/05 07:29:15;;;;;;;404.57;274.07;;;;;18.60;96849.00;;;;4933896;28;20212;-68
2024/02/05 07:32:05;;;;;;;301.87;206.13;;;;;18.80;96845.00;;;;4933610;28;20579;-68
2024/02/05 07:34:54;;;;;;;296.57;202.57;;;;;18.90;96838.00;;;;4941392;28;20208;-68
2024/02/05 07:37:43;;;;;;;300.10;209.13;;;;;19.00;96837.00;;;;4946167;28;20240;-69
2024/02/05 07:40:32;;;;;;;303.17;209.13;;;;;18.80;96844.00;;;;4944701;28;20216;-69
2024/02/05 07:43:21;;;;;;;290.97;207.03;;;;;19.10;96854.00;;;;4944129;28;20205;-68
2024/02/05 07:46:12;;;;;;;296.37;207.77;;;;;18.70;96851.00;;;;4946812;28;20737;-68
2024/02/05 07:49:01;;;;;;;315.47;216.83;;;;;19.30;96858.00;;;;4941341;29;20385;-69
2024/02/05 07:51:51;;;;;;;301.90;211.20;;;;;19.60;96849.00;;;;4942372;28;20212;-69
2024/02/05 07:54:40;;;;;;;299.60;213.07;;;;;19.40;96853.00;;;;4945334;28;20204;-69
2024/02/05 07:57:29;;;;;;;311.47;220.00;;;;;19.20;96842.00;;;;4948286;28;20220;-69
2024/02/05 08:00:19;;;;;;;314.60;221.40;;;;;19.70;96849.00;;;;4944308;28;20220;-68
2024/02/05 08:03:10;;;;;;;331.03;238.80;;;;;18.90;96858.00;;;;4944575;28;20208;-67
2024/02/05 08:06:00;;;;;;;304.63;215.63;;;;;18.80;96863.00;;;;4941820;28;20215;-67
2024/02/05 08:08:49;;;;;;;305.33;216.37;;;;;19.30;96863.00;;;;4942255;28;20223;-69
2024/02/05 08:11:38;;;;;;;309.57;218.03;;;;;19.50;96871.00;;;;4942763;28;20200;-69
2024/02/05 08:14:30;;;;;;;312.07;224.00;;;;;19.30;96856.00;;;;4939007;28;20708;-68
2024/02/05 08:17:19;;;;;;;310.40;226.33;;;;;19.00;96862.00;;;;4983953;22;20227;-68
2024/02/05 08:20:11;;;;;;;312.30;226.97;;;;;19.50;96871.00;;;;4982726;28;20206;-67
2024/02/05 08:23:00;;;;;;;321.87;231.50;;;;;19.70;96876.00;;;;4981801;28;20279;-68
2024/02/05 08:25:49;;;;;;;310.83;221.93;;;;;19.50;96880.00;;;;4987100;28;20202;-68
2024/02/05 08:28:38;;;;;;;316.97;224.60;;;;;19.00;96874.00;;;;4963891;28;20199;-70
2024/02/05 08:31:27;;;;;;;308.77;219.60;;;;;19.60;96894.00;;;;4968520;28;20567;-69
2024/02/05 08:34:17;;;;;;;307.03;217.80;;;;;19.40;96857.00;;;;4963072;28;20215;-68
2024/02/05 08:37:08;;;;;;;318.00;231.63;;;;;19.80;96894.00;;;;4967773;28;20238;-68
2024/02/05 08:39:57;;;;;;;311.10;220.40;;;;;19.50;96893.00;;;;4964232;28;20680;-68
2024/02/05 08:42:46;;;;;;;320.73;224.73;;;;;19.80;96892.00;;;;4964408;28;20680;-68
2024/02/05 08:45:36;;;;;;;325.20;227.67;;;;;19.90;96892.00;;;;4966435;28;20211;-68
2024/02/05 08:48:25;;;;;;;336.30;233.77;;;;;20.00;96898.00;;;;4963989;28;20681;-69
2024/02/05 08:51:14;;;;;;;341.03;233.73;;;;;20.10;96895.00;;;;4962795;28;20211;-68
2024/02/05 08:54:05;;;;;;;345.20;236.90;;;;;19.90;96894.00;;;;4961755;28;20199;-69
2024/02/05 08:56:54;;;;;;;323.63;222.80;;;;;20.10;96904.00;;;;4967539;28;20224;-69
2024/02/05 08:59:43;;;;;;;332.93;229.47;;;;;19.50;96916.00;;;;4961692;28;20207;-70
2024/02/05 09:02:32;;;;;;;329.77;230.37;;;;;19.60;96906.00;;;;4966989;28;20211;-71
2024/02/05 09:05:22;;;;;;;331.43;231.17;;;;;20.10;96913.00;;;;4962751;28;20207;-68
2024/02/05 09:08:15;;;;;;;346.43;239.77;;;;;19.90;96905.00;;;;4963124;28;20206;-68
2024/02/05 09:11:06;;;;;;;338.80;237.83;;;;;20.40;96912.00;;;;4963095;28;20218;-68
2024/02/05 09:13:55;;;;;;;323.30;226.73;;;;;20.40;96904.00;;;;4963212;28;20204;-70
2024/02/05 09:16:44;;;;;;;338.83;238.30;;;;;20.60;96911.00;;;;4966828;28;20632;-70
2024/02/05 09:19:34;;;;;;;345.73;243.10;;;;;19.90;96906.00;;;;4968814;28;20227;-68
2024/02/05 09:22:23;;;;;;;342.20;241.10;;;;;20.30;96917.00;;;;4960932;28;20237;-70
2024/02/05 09:25:12;;;;;;;357.80;252.80;;;;;20.60;96915.00;;;;4964849;28;20696;-69
2024/02/05 09:28:03;;;;;;;344.07;246.67;;;;;20.50;96936.00;;;;4968587;28;20743;-67
2024/02/05 09:30:53;;;;;;;351.53;252.13;;;;;20.80;96928.00;;;;4960051;28;20211;-67
2024/02/05 09:33:46;;;;;;;351.57;248.80;;;;;19.90;96918.00;;;;4964766;28;20211;-70
2024/02/05 09:36:35;;;;;;;349.63;251.87;;;;;20.80;96929.00;;;;4963926;28;20250;-71
2024/02/05 09:39:24;;;;;;;348.07;256.77;;;;;21.10;96931.00;;;;4971411;28;20223;-70
2024/02/05 09:42:13;;;;;;;357.30;255.37;;;;;20.20;96925.00;;;;4961093;28;20227;-69
2024/02/05 09:45:04;;;;;;;358.83;259.17;;;;;20.70;96922.00;;;;4961851;28;20222;-68
2024/02/05 09:47:53;;;;;;;345.77;251.10;;;;;21.00;96938.00;;;;4963442;28;20227;-69
2024/02/05 09:50:43;;;;;;;351.10;254.20;;;;;21.30;96923.00;;;;4963259;28;20387;-69
2024/02/05 09:53:32;;;;;;;346.07;251.17;;;;;21.50;96934.00;;;;4960243;28;20216;-67
2024/02/05 09:56:23;;;;;;;352.80;254.17;;;;;20.70;96928.00;;;;4962706;28;20238;-68
2024/02/05 09:59:12;;;;;;;367.93;265.60;;;;;20.40;96942.00;;;;4961940;28;20726;-68
2024/02/05 10:02:06;;;;;;;351.50;256.33;;;;;21.30;96935.00;;;;4960099;28;20578;-66
2024/02/05 10:04:57;;;;;;;353.23;258.27;;;;;20.40;96925.00;;;;4962883;28;20199;-70
2024/02/05 10:07:48;;;;;;;350.47;252.90;;;;;20.10;96941.00;;;;4961534;28;20238;-68
2024/02/05 10:10:40;;;;;;;357.87;260.07;;;;;21.10;96925.00;;;;4960375;28;20208;-66
2024/02/05 10:13:31;;;;;;;352.60;252.77;;;;;21.10;96930.00;;;;4962243;28;20219;-69
2024/02/05 10:16:20;;;;;;;355.57;258.40;;;;;20.40;96914.00;;;;4964350;28;20250;-68
2024/02/05 10:19:10;;;;;;;368.90;270.60;;;;;20.50;96920.00;;;;4994046;28;20238;-67
2024/02/05 10:22:00;;;;;;;361.17;258.53;;;;;21.10;96929.00;;;;4966268;28;20628;-67
2024/02/05 10:24:50;;;;;;;359.53;257.17;;;;;20.90;96908.00;;;;4965485;28;20760;-68
2024/02/05 10:27:40;;;;;;;366.53;264.30;;;;;21.40;96927.00;;;;4960775;28;20220;-71
2024/02/05 10:30:30;;;;;;;359.93;257.03;;;;;21.70;96934.00;;;;4966598;28;20195;-67
2024/02/05 10:33:19;;;;;;;368.77;266.70;;;;;22.50;96920.00;;;;4961978;28;20203;-66
2024/02/05 10:36:11;;;;;;;383.47;276.27;;;;;22.80;96927.00;;;;4963028;28;20703;-68
2024/02/05 10:39:00;;;;;;;382.70;277.07;;;;;23.50;96916.00;;;;4960576;28;20226;-70
2024/02/05 10:41:49;;;;;;;395.40;295.43;;;;;23.90;96917.00;;;;4962652;28;20214;-70
2024/02/05 10:44:38;;;;;;;404.33;308.80;;;;;23.60;96913.00;;;;4964307;28;20700;-71
2024/02/05 10:47:28;;;;;;;406.87;323.03;;;;;23.10;96908.00;;;;4963613;28;20268;-70
2024/02/05 10:50:17;;;;;;;423.57;346.83;;;;;23.10;96905.00;;;;4962964;28;20895;-71
2024/02/05 10:53:08;;;;;;;428.03;358.57;;;;;23.90;96889.00;;;;4960654;28;20211;-69
2024/02/05 10:55:59;;;;;;;418.23;361.97;;;;;23.10;96887.00;;;;4959437;28;20207;-68
2024/02/05 10:58:48;;;;;;;419.13;367.17;;;;;24.20;96893.00;;;;4963420;28;20246;-69
2024/02/05 11:01:42;;;;;;;420.10;372.77;;;;;24.60;96897.00;;;;4959144;28;20218;-68
2024/02/05 11:04:32;;;;;;;425.00;378.13;;;;;23.40;96897.00;;;;4961743;28;20203;-72
2024/02/05 11:07:22;;;;;;;425.40;378.70;;;;;24.60;96894.00;;;;4963969;28;20251;-69
2024/02/05 11:10:13;;;;;;;447.07;398.83;;;;;25.30;96883.00;;;;4959394;28;20269;-69
2024/02/05 11:13:05;;;;;;;454.57;406.10;;;;;23.70;96894.00;;;;4961639;28;21017;-68
2024/02/05 11:15:54;;;;;;;458.77;410.67;;;;;26.10;96895.00;;;;4959442;28;20257;-65
2024/02/05 11:18:46;;;;;;;478.93;430.20;;;;;25.50;96896.00;;;;4965641;28;20230;-66
2024/02/05 11:21:39;;;;;;;484.97;436.20;;;;;24.30;96895.00;;;;4960969;28;20718;-67
2024/02/05 11:24:30;;;;;;;465.00;417.03;;;23.10;41.00;22.20;96894.00;;;;4961156;28;20211;-67
2024/02/05 11:27:21;;;;;;;443.13;396.03;;;22.10;42.00;24.10;96895.00;;;;4962310;28;20615;-67
2024/02/05 11:30:15;;;;;;;439.10;391.23;;;21.90;42.70;23.70;96899.00;;;;4961644;28;20208;-66
2024/02/05 11:33:04;;;;;;;441.80;393.53;;;21.80;42.90;22.40;96890.00;;;;4960348;28;20218;-68
2024/02/05 11:35:56;;;;;;;419.77;373.60;;;21.80;43.20;23.70;96919.00;;;;4960298;28;20502;-69
2024/02/05 11:38:45;;;;;;;420.53;367.13;;;21.50;43.80;24.60;96905.00;;;;4963576;28;20227;-69
2024/02/05 11:41:34;;;;;;;422.10;368.77;;;21.70;43.80;23.60;96877.00;;;;4959461;28;20585;-71
2024/02/05 11:44:26;;;;;;;413.93;356.17;;;21.40;42.80;20.80;96877.00;;;;4965662;28;20200;-70
2024/02/05 11:47:15;;;;;;;417.00;343.23;;;21.00;43.40;22.00;96877.00;;;;4960516;28;20238;-69
2024/02/05 11:50:06;;;;;;;415.07;335.70;;;20.80;43.80;22.50;96892.00;;;;4962825;28;20689;-68
2024/02/05 11:52:56;;;;;;;404.67;328.50;;;20.80;44.00;23.30;96899.00;;;;4967186;28;20231;-68
2024/02/05 11:55:45;;;;;;;409.97;325.03;;;21.00;43.90;21.70;96877.00;;;;4961962;28;20610;-68
2024/02/05 11:58:34;;;;;;;420.33;336.07;;;;;20.20;96865.00;;;;4963953;28;20200;-68
2024/02/05 12:01:25;;;;;;;410.97;324.03;;;;;22.60;96871.00;;;;4961486;28;20595;-70
2024/02/05 12:04:14;;;;;;;411.17;322.47;;;;;23.10;96891.00;;;;4973423;28;20204;-69
2024/02/05 12:07:04;;;;;;;416.80;332.10;;;;;25.80;96889.00;;;;4962009;28;20238;-68
2024/02/05 12:09:54;;;;;;;415.80;346.43;;;;;23.90;96868.00;;;;4959661;28;20204;-68
2024/02/05 12:12:43;;;;;;;438.37;372.83;;;;;24.00;96890.00;;;;4958866;28;20242;-67
2024/02/05 12:15:37;;;;;;;429.23;372.00;;;;;22.60;96876.00;;;;4951003;28;20199;-67
2024/02/05 12:18:27;;;;;;;438.17;376.33;;;;;23.80;96883.00;;;;4956737;28;20218;-67
2024/02/05 12:21:17;;;;;;;433.63;375.30;;;;;23.20;96859.00;;;;4955411;28;20561;-66
2024/02/05 12:24:07;;;;;;;433.80;378.37;;;;;24.10;96863.00;;;;4954819;28;20269;-67
2024/02/05 12:26:56;;;;;;;426.83;379.23;;;;;24.10;96874.00;;;;4955332;28;20228;-70
2024/02/05 12:29:45;;;;;;;438.10;386.93;;;;;24.10;96860.00;;;;4951078;28;20207;-65
2024/02/05 12:32:34;;;;;;;441.73;393.43;;;;;26.20;96876.00;;;;4951230;28;20212;-66